CheckWX is a tool to help pilots better visualize weather data.  It is not intended as a substitute for an official pre-flight weather briefing.

16:25:43 UTC

HTZA METAR
Abeid Amani Karume International Airport
Zanzibar, Tanzania
Current

1 hour ago

HTZA 291500Z 13006KT 9999 FEW018 28/21 Q1013 NOSIG
Observed
May-29 @ 15:00 UTC
Wind
  • 130° at 6 KTS
Visibility
10,000+ meters
Flight Rules
VFR
Cloud Levels
  • Few at 1,800' AGL
Temperature
28°C / 82°F
Dewpoint
21°C / 70°F
Humidity
66%
Altimeter
29.91" Hg
Pressure
1012.92 hPa
Previous

2 hours ago

HTZA 291400Z 14012KT 9999 FEW018 29/21 Q1013 NOSIG
Observed
May-29 @ 14:00 UTC
Wind
  • 140° at 12 KTS
Visibility
10,000+ meters
Flight Rules
VFR
Cloud Levels
  • Few at 1,800' AGL
Temperature
29°C / 84°F
Dewpoint
21°C / 70°F
Humidity
62%
Altimeter
29.91" Hg
Pressure
1012.92 hPa
Previous

3 hours ago

HTZA 291300Z 12008KT 9999 FEW020 30/21 Q1013 NOSIG
Observed
May-29 @ 13:00 UTC
Wind
  • 120° at 8 KTS
Visibility
10,000+ meters
Flight Rules
VFR
Cloud Levels
  • Few at 2,000' AGL
Temperature
30°C / 86°F
Dewpoint
21°C / 70°F
Humidity
59%
Altimeter
29.91" Hg
Pressure
1012.92 hPa